createdAt,value
2022-11-30T00:01:31.877Z,78.30
2022-11-30T00:04:00.245Z,76.10
2022-11-30T00:06:28.185Z,77.30
2022-11-30T00:08:56.587Z,78.78
2022-11-30T00:11:27.363Z,75.53
2022-11-30T00:13:55.649Z,72.10
2022-11-30T00:16:23.755Z,73.20
2022-11-30T00:18:52.244Z,78.70
2022-11-30T00:21:20.942Z,74.50
2022-11-30T00:23:49.598Z,75.90
2022-11-30T00:26:22.473Z,79.30
2022-11-30T00:28:51.897Z,74.50
2022-11-30T00:31:20.158Z,74.05
2022-11-30T00:33:48.400Z,75.97
2022-11-30T00:36:18.116Z,76.53
2022-11-30T00:38:46.668Z,74.45
2022-11-30T00:41:15.380Z,73.20
2022-11-30T00:43:43.621Z,77.35
2022-11-30T00:46:13.203Z,73.97
2022-11-30T00:48:42.018Z,73.75
2022-11-30T00:51:11.431Z,75.65
2022-11-30T00:53:39.629Z,74.47
2022-11-30T00:56:08.156Z,71.57
2022-11-30T00:58:36.050Z,70.95
2022-11-30T01:01:04.616Z,69.45
2022-11-30T01:03:34.645Z,70.00
2022-11-30T01:06:03.860Z,67.40
2022-11-30T01:08:31.992Z,71.43
2022-11-30T01:11:06.901Z,71.82
2022-11-30T01:13:34.827Z,71.10
2022-11-30T01:16:02.752Z,68.13
2022-11-30T01:18:30.713Z,66.45
2022-11-30T01:20:59.960Z,65.35
2022-11-30T01:23:27.888Z,64.38
2022-11-30T01:25:56.394Z,66.97
2022-11-30T01:28:24.370Z,64.88
2022-11-30T01:30:59.416Z,70.35
2022-11-30T01:33:27.602Z,70.30
2022-11-30T01:36:05.992Z,68.53
2022-11-30T01:38:35.029Z,73.30
2022-11-30T01:41:03.802Z,73.72
2022-11-30T01:43:43.204Z,74.28
2022-11-30T01:46:31.539Z,72.35
2022-11-30T01:49:04.692Z,74.15
2022-11-30T01:51:39.405Z,76.00
2022-11-30T01:54:09.864Z,79.45
2022-11-30T01:56:42.595Z,79.43
2022-11-30T01:59:11.188Z,77.00
2022-11-30T02:01:39.146Z,78.15
2022-11-30T02:04:12.468Z,75.72
2022-11-30T02:06:41.789Z,79.78
2022-11-30T02:09:10.086Z,83.55
2022-11-30T02:11:38.134Z,75.78
2022-11-30T02:14:32.544Z,74.47
2022-11-30T02:17:10.394Z,74.25
2022-11-30T02:20:08.731Z,73.72
2022-11-30T02:22:51.505Z,74.45
2022-11-30T02:25:27.118Z,78.70
2022-11-30T02:28:19.713Z,71.72
2022-11-30T02:30:53.159Z,68.80
2022-11-30T02:33:26.279Z,67.10
2022-11-30T02:35:56.397Z,65.15
2022-11-30T02:38:26.323Z,63.50
2022-11-30T02:40:54.246Z,58.92
2022-11-30T02:43:25.120Z,59.35
2022-11-30T02:46:00.672Z,53.80
2022-11-30T02:48:34.037Z,54.65
2022-11-30T02:51:05.714Z,52.88
2022-11-30T02:53:33.666Z,50.35
2022-11-30T02:56:01.828Z,48.53
2022-11-30T02:58:29.748Z,49.00
2022-11-30T03:00:59.111Z,48.28
2022-11-30T03:03:27.052Z,44.83
2022-11-30T03:05:54.977Z,44.78
2022-11-30T03:08:22.933Z,45.10
2022-11-30T03:10:50.854Z,44.35
2022-11-30T03:13:18.776Z,42.15
2022-11-30T03:15:46.674Z,42.40
2022-11-30T03:18:16.002Z,41.70
2022-11-30T03:20:44.366Z,43.17
2022-11-30T03:23:12.477Z,44.58
2022-11-30T03:25:40.410Z,44.17
2022-11-30T03:28:08.316Z,48.60
2022-11-30T03:30:36.204Z,46.33
2022-11-30T03:33:04.130Z,48.53
2022-11-30T03:35:33.382Z,47.97
2022-11-30T03:38:01.313Z,46.42
2022-11-30T03:40:29.206Z,47.55
2022-11-30T03:42:57.122Z,50.50
2022-11-30T03:45:25.037Z,47.85
2022-11-30T03:47:52.949Z,46.85
2022-11-30T03:50:20.878Z,47.88
2022-11-30T03:52:50.358Z,47.95
2022-11-30T03:55:18.474Z,48.90
2022-11-30T03:57:46.457Z,46.13
2022-11-30T04:00:15.229Z,48.67
2022-11-30T04:02:44.926Z,48.60
2022-11-30T04:05:13.508Z,47.45
2022-11-30T04:07:41.544Z,47.33
2022-11-30T04:10:12.324Z,45.03
2022-11-30T04:12:40.231Z,49.00
2022-11-30T04:15:09.321Z,50.33
2022-11-30T04:17:37.205Z,51.45
2022-11-30T04:20:06.045Z,54.33
2022-11-30T04:22:34.358Z,55.35
2022-11-30T04:25:02.275Z,56.50
2022-11-30T04:27:31.540Z,55.15
2022-11-30T04:29:59.442Z,55.58
2022-11-30T04:32:27.447Z,56.35
2022-11-30T04:34:55.366Z,56.95
2022-11-30T04:37:23.273Z,57.85
2022-11-30T04:39:51.245Z,56.75
2022-11-30T04:42:19.112Z,54.55
2022-11-30T04:44:48.594Z,54.30
2022-11-30T04:47:16.918Z,54.55
2022-11-30T04:49:44.846Z,53.38
2022-11-30T04:52:12.765Z,52.80
2022-11-30T04:54:40.640Z,52.38
2022-11-30T04:57:08.576Z,50.10
2022-11-30T04:59:36.489Z,53.13
2022-11-30T05:02:05.797Z,54.83
2022-11-30T05:04:33.832Z,52.22
2022-11-30T05:07:01.926Z,50.95
2022-11-30T05:09:29.848Z,49.85
2022-11-30T05:11:57.726Z,48.72
2022-11-30T05:14:25.624Z,49.55
2022-11-30T05:16:53.589Z,48.33
2022-11-30T05:19:22.853Z,48.00
2022-11-30T05:21:50.806Z,48.60
2022-11-30T05:24:18.751Z,48.80
2022-11-30T05:26:46.665Z,52.88
2022-11-30T05:29:14.570Z,52.55
2022-11-30T05:31:42.487Z,52.78
2022-11-30T05:34:10.434Z,52.83
2022-11-30T05:36:39.725Z,56.63
2022-11-30T05:39:07.645Z,58.80
2022-11-30T05:41:35.718Z,58.28
2022-11-30T05:44:03.670Z,60.28
2022-11-30T05:46:31.627Z,61.83
2022-11-30T05:48:59.533Z,61.80
2022-11-30T05:51:27.685Z,62.65
2022-11-30T05:53:56.964Z,62.78
2022-11-30T05:56:24.851Z,63.80
2022-11-30T05:58:52.927Z,66.47
2022-11-30T06:01:22.758Z,66.45
2022-11-30T06:03:50.944Z,69.47
2022-11-30T06:06:19.957Z,68.63
2022-11-30T06:08:49.602Z,67.88
2022-11-30T06:11:18.968Z,64.30
2022-11-30T06:13:46.872Z,68.00
2022-11-30T06:16:14.850Z,69.07
2022-11-30T06:18:42.852Z,71.10
2022-11-30T06:21:13.373Z,70.57
2022-11-30T06:23:41.292Z,74.53
2022-11-30T06:26:11.189Z,72.40
2022-11-30T06:28:45.329Z,71.15
2022-11-30T06:31:15.820Z,69.30
2022-11-30T06:33:44.085Z,71.60
2022-11-30T06:36:12.006Z,72.30
2022-11-30T06:38:39.887Z,75.45
2022-11-30T06:41:09.467Z,73.22
2022-11-30T06:43:38.541Z,75.72
2022-11-30T06:46:08.547Z,74.35
2022-11-30T06:48:36.682Z,74.05
2022-11-30T06:51:07.383Z,73.93
2022-11-30T06:53:35.503Z,73.30
2022-11-30T06:56:10.023Z,71.60
2022-11-30T06:58:38.985Z,73.05
2022-11-30T07:01:09.074Z,72.82
2022-11-30T07:03:37.403Z,76.38
2022-11-30T07:06:09.132Z,75.03
2022-11-30T07:08:37.726Z,77.85
2022-11-30T07:11:06.399Z,80.70
2022-11-30T07:13:34.698Z,81.47
2022-11-30T07:16:05.621Z,83.75
2022-11-30T07:18:35.660Z,87.85
2022-11-30T07:21:05.387Z,91.32
2022-11-30T07:23:56.236Z,90.47
2022-11-30T07:26:25.258Z,93.88
2022-11-30T07:28:58.032Z,96.85
2022-11-30T07:31:27.880Z,96.85
2022-11-30T07:33:58.560Z,97.30
2022-11-30T07:36:29.641Z,97.00
2022-11-30T07:38:57.539Z,96.60
2022-11-30T07:41:25.834Z,98.35
2022-11-30T07:43:53.887Z,97.20
2022-11-30T07:46:23.910Z,98.97
2022-11-30T07:48:52.425Z,100.78
2022-11-30T07:51:23.313Z,101.28
2022-11-30T07:53:51.501Z,107.63
2022-11-30T07:56:20.880Z,108.38
2022-11-30T07:58:49.339Z,108.13
2022-11-30T08:01:19.449Z,104.93
2022-11-30T08:03:47.446Z,104.30
2022-11-30T08:06:17.072Z,93.93
2022-11-30T08:08:47.054Z,102.05
2022-11-30T08:11:17.025Z,102.43
2022-11-30T08:13:45.445Z,104.43
2022-11-30T08:16:14.823Z,105.18
2022-11-30T08:18:43.362Z,104.88
2022-11-30T08:21:13.402Z,108.97
2022-11-30T08:23:42.905Z,112.40
2022-11-30T08:26:14.212Z,111.43
2022-11-30T08:28:43.166Z,113.93
2022-11-30T08:31:14.975Z,117.32
2022-11-30T08:33:43.469Z,116.30
2022-11-30T08:36:13.546Z,115.25
2022-11-30T08:38:42.823Z,115.50
2022-11-30T08:41:13.737Z,116.97
2022-11-30T08:43:41.805Z,119.60
2022-11-30T08:46:42.623Z,116.05
2022-11-30T08:49:20.491Z,118.88
2022-11-30T08:52:16.024Z,119.93
2022-11-30T08:54:35.919Z,120.28
2022-11-30T08:57:05.182Z,115.20
2022-11-30T08:59:33.474Z,117.75
2022-11-30T09:02:01.404Z,118.85
2022-11-30T09:04:29.299Z,122.45
2022-11-30T09:06:59.313Z,122.63
2022-11-30T09:09:27.973Z,121.97
2022-11-30T09:11:55.990Z,128.15
2022-11-30T09:14:25.319Z,130.07
2022-11-30T09:16:55.630Z,133.88
2022-11-30T09:19:23.591Z,138.30
2022-11-30T09:21:52.541Z,137.35
2022-11-30T09:24:21.065Z,141.82
2022-11-30T09:26:49.057Z,141.40
2022-11-30T09:29:16.969Z,140.85
2022-11-30T09:31:46.281Z,136.20
2022-11-30T09:34:14.197Z,137.13
2022-11-30T09:36:42.263Z,131.05
2022-11-30T09:39:12.761Z,133.63
2022-11-30T09:42:03.956Z,130.68
2022-11-30T09:44:39.969Z,128.15
2022-11-30T09:47:27.252Z,127.57
2022-11-30T09:49:57.365Z,127.32
2022-11-30T09:52:32.975Z,123.18
2022-11-30T09:55:06.554Z,119.13
2022-11-30T09:57:42.493Z,110.80
2022-11-30T10:00:15.486Z,105.40
2022-11-30T10:02:45.500Z,97.50
2022-11-30T10:05:14.781Z,87.20
2022-11-30T10:07:56.309Z,79.38
2022-11-30T10:10:35.192Z,70.30
2022-11-30T10:13:17.448Z,70.80
2022-11-30T10:15:55.268Z,64.97
2022-11-30T10:18:35.878Z,63.35
2022-11-30T10:21:15.655Z,63.42
2022-11-30T10:23:59.944Z,56.72
2022-11-30T10:26:33.483Z,49.13
2022-11-30T10:29:09.300Z,49.40
2022-11-30T10:31:39.363Z,48.33
2022-11-30T10:34:20.368Z,48.20
2022-11-30T10:36:53.272Z,41.85
2022-11-30T10:39:29.617Z,40.78
2022-11-30T10:42:05.701Z,38.97
2022-11-30T10:44:40.338Z,36.55
2022-11-30T10:47:15.189Z,37.75
2022-11-30T10:49:50.224Z,37.33
2022-11-30T10:52:23.047Z,41.53
2022-11-30T10:54:57.995Z,46.03
2022-11-30T10:57:32.288Z,37.90
2022-11-30T11:00:01.865Z,36.50
2022-11-30T11:02:39.515Z,36.28
2022-11-30T11:05:17.063Z,35.97
2022-11-30T11:07:53.654Z,30.95
2022-11-30T11:10:28.441Z,27.95
2022-11-30T11:12:57.301Z,34.10
2022-11-30T11:15:26.705Z,34.85
2022-11-30T11:18:12.596Z,35.70
2022-11-30T11:20:43.339Z,32.90
2022-11-30T11:23:22.920Z,32.00
2022-11-30T11:25:57.568Z,29.90
2022-11-30T11:28:26.301Z,26.60
2022-11-30T11:30:56.144Z,27.63
2022-11-30T11:33:25.899Z,30.10
2022-11-30T11:35:56.504Z,28.88
2022-11-30T11:38:28.228Z,26.88
2022-11-30T11:40:59.429Z,24.42
2022-11-30T11:43:29.939Z,21.60
2022-11-30T11:46:01.021Z,22.70
2022-11-30T11:48:36.101Z,26.90
2022-11-30T11:51:08.243Z,27.15
2022-11-30T11:56:24.773Z,29.05
2022-11-30T11:58:57.591Z,22.98
2022-11-30T12:01:41.512Z,24.30
2022-11-30T12:04:32.950Z,24.02
2022-11-30T12:07:05.725Z,16.92
2022-11-30T12:09:40.596Z,18.00
2022-11-30T12:12:13.547Z,20.35
2022-11-30T12:14:41.577Z,22.48
2022-11-30T12:17:27.305Z,16.23
2022-11-30T12:20:00.970Z,18.65
2022-11-30T12:23:01.881Z,19.05
2022-11-30T12:25:34.876Z,18.83
2022-11-30T12:28:17.436Z,16.77
2022-11-30T12:33:25.408Z,19.30
2022-11-30T12:36:02.321Z,20.23
2022-11-30T12:38:48.836Z,19.80
2022-11-30T12:41:31.660Z,21.95
2022-11-30T12:44:15.777Z,17.38
2022-11-30T12:46:54.377Z,16.27
2022-11-30T12:49:45.374Z,17.40
2022-11-30T12:52:28.669Z,18.25
2022-11-30T12:55:04.056Z,19.42
2022-11-30T12:57:37.224Z,18.48
2022-11-30T13:00:09.956Z,19.40
2022-11-30T13:03:23.738Z,20.00
2022-11-30T13:05:57.845Z,20.75
2022-11-30T13:08:30.960Z,19.27
2022-11-30T13:11:03.962Z,19.98
2022-11-30T13:13:35.801Z,19.92
2022-11-30T13:16:08.971Z,22.35
2022-11-30T13:18:37.822Z,21.63
2022-11-30T13:21:11.224Z,20.70
2022-11-30T13:23:45.304Z,22.45
2022-11-30T13:26:24.910Z,21.88
2022-11-30T13:29:05.224Z,20.65
2022-11-30T13:31:39.074Z,19.52
2022-11-30T13:34:24.827Z,19.70
2022-11-30T13:37:00.948Z,20.67
2022-11-30T13:39:29.988Z,23.15
2022-11-30T13:42:34.291Z,21.73
2022-11-30T13:45:24.747Z,20.38
2022-11-30T13:47:54.794Z,19.08
2022-11-30T13:50:28.594Z,19.67
2022-11-30T13:53:21.652Z,18.60
2022-11-30T13:56:05.454Z,20.38
2022-11-30T13:58:35.698Z,19.58
2022-11-30T14:01:23.322Z,20.45
2022-11-30T14:04:23.498Z,19.60
2022-11-30T14:06:53.102Z,20.92
2022-11-30T14:09:59.723Z,19.00
2022-11-30T14:12:45.580Z,22.17
2022-11-30T14:15:55.293Z,21.65
2022-11-30T14:18:29.209Z,22.85
2022-11-30T14:21:01.856Z,24.23
2022-11-30T14:23:33.109Z,23.88
2022-11-30T14:26:10.496Z,26.35
2022-11-30T14:28:44.558Z,26.90
2022-11-30T14:31:23.061Z,25.17
2022-11-30T14:33:55.116Z,26.30
2022-11-30T14:36:26.678Z,25.67
2022-11-30T14:38:54.676Z,25.83
2022-11-30T14:41:24.918Z,26.33
2022-11-30T14:44:04.117Z,25.95
2022-11-30T14:46:35.805Z,27.38
2022-11-30T14:49:17.965Z,28.38
2022-11-30T14:51:48.174Z,27.70
2022-11-30T14:54:27.884Z,25.58
2022-11-30T14:57:03.818Z,24.45
2022-11-30T14:59:42.941Z,22.83
2022-11-30T15:02:21.067Z,24.08
2022-11-30T15:04:50.639Z,21.30
2022-11-30T15:07:19.025Z,23.60
2022-11-30T15:09:50.934Z,24.35
2022-11-30T15:12:21.769Z,25.20
2022-11-30T15:15:15.970Z,26.15
2022-11-30T15:17:48.389Z,24.85
2022-11-30T15:23:13.825Z,23.88
2022-11-30T15:25:44.772Z,26.33
2022-11-30T15:28:16.084Z,26.10
2022-11-30T15:30:45.855Z,26.77
2022-11-30T15:33:19.933Z,27.48
2022-11-30T15:36:14.135Z,29.27
2022-11-30T15:38:38.391Z,27.98
2022-11-30T15:41:09.462Z,24.83
2022-11-30T15:43:40.578Z,26.85
2022-11-30T15:46:23.996Z,28.35
2022-11-30T15:49:06.313Z,27.73
2022-11-30T15:51:39.549Z,27.35
2022-11-30T15:54:07.477Z,28.60
2022-11-30T15:56:36.342Z,31.08
2022-11-30T15:59:07.320Z,30.08
2022-11-30T16:02:01.749Z,28.10
2022-11-30T16:05:14.114Z,31.80
2022-11-30T16:07:51.213Z,32.20
2022-11-30T16:10:22.391Z,32.72
2022-11-30T16:12:51.804Z,31.80
2022-11-30T16:15:21.944Z,33.65
2022-11-30T16:17:49.945Z,31.73
2022-11-30T16:20:20.939Z,33.83
2022-11-30T16:22:49.882Z,33.38
2022-11-30T16:25:20.396Z,32.63
2022-11-30T16:27:48.853Z,32.55
2022-11-30T16:30:19.305Z,31.35
2022-11-30T16:32:47.348Z,32.72
2022-11-30T16:35:23.001Z,32.90
2022-11-30T16:37:51.318Z,31.25
2022-11-30T16:40:20.642Z,34.33
2022-11-30T16:42:51.148Z,32.63
2022-11-30T16:45:21.370Z,33.65
2022-11-30T16:47:49.787Z,35.10
2022-11-30T16:50:19.986Z,37.95
2022-11-30T16:52:48.185Z,38.35
2022-11-30T16:55:18.179Z,39.88
2022-11-30T16:57:46.885Z,40.35
2022-11-30T17:00:17.428Z,38.75
2022-11-30T17:02:50.138Z,36.95
2022-11-30T17:05:19.573Z,34.20
2022-11-30T17:07:47.569Z,35.30
2022-11-30T17:10:16.930Z,31.63
2022-11-30T17:12:44.866Z,34.58
2022-11-30T17:15:17.296Z,35.55
2022-11-30T17:20:14.758Z,32.58
2022-11-30T17:22:45.452Z,34.25
2022-11-30T17:25:16.268Z,35.58
2022-11-30T17:27:44.425Z,35.15
2022-11-30T17:30:13.833Z,33.72
2022-11-30T17:32:41.817Z,31.77
2022-11-30T17:35:10.526Z,31.58
2022-11-30T17:37:38.477Z,30.02
2022-11-30T17:40:11.485Z,32.80
2022-11-30T17:42:39.472Z,31.60
2022-11-30T17:45:08.423Z,30.42
2022-11-30T17:47:36.598Z,31.73
2022-11-30T17:50:05.277Z,31.20
2022-11-30T17:52:33.213Z,31.10
2022-11-30T17:55:01.127Z,30.75
2022-11-30T17:57:30.608Z,31.95
2022-11-30T17:59:58.503Z,33.15
2022-11-30T18:02:26.479Z,32.22
2022-11-30T18:04:55.851Z,31.45
2022-11-30T18:07:23.888Z,33.20
2022-11-30T18:09:51.870Z,32.10
2022-11-30T18:12:19.761Z,32.00
2022-11-30T18:14:50.115Z,30.75
2022-11-30T18:17:18.240Z,32.78
2022-11-30T18:19:46.201Z,32.65
2022-11-30T18:22:14.153Z,32.85
2022-11-30T18:24:42.146Z,32.10
2022-11-30T18:27:10.055Z,30.55
2022-11-30T18:29:38.017Z,31.65
2022-11-30T18:32:08.059Z,31.98
2022-11-30T18:34:35.994Z,32.28
2022-11-30T18:37:03.914Z,32.90
2022-11-30T18:39:31.902Z,32.97
2022-11-30T18:41:59.773Z,32.97
2022-11-30T18:44:27.677Z,31.58
2022-11-30T18:46:55.647Z,32.80
2022-11-30T18:49:24.990Z,33.55
2022-11-30T18:51:52.985Z,36.63
2022-11-30T18:54:20.968Z,34.35
2022-11-30T18:56:48.970Z,40.75
2022-11-30T18:59:18.045Z,47.10
2022-11-30T19:01:46.551Z,58.35
2022-11-30T19:04:14.951Z,47.75
2022-11-30T19:06:47.088Z,45.80
2022-11-30T19:09:20.045Z,41.88
2022-11-30T19:11:48.268Z,40.50
2022-11-30T19:14:17.678Z,38.95
2022-11-30T19:16:46.501Z,38.35
2022-11-30T19:19:15.429Z,38.72
2022-11-30T19:21:47.903Z,38.80
2022-11-30T19:24:16.890Z,39.30
2022-11-30T19:26:44.972Z,38.63
2022-11-30T19:29:13.413Z,39.88
2022-11-30T19:31:41.469Z,38.83
2022-11-30T19:34:13.321Z,40.90
2022-11-30T19:36:41.722Z,41.42
2022-11-30T19:39:12.067Z,44.35
2022-11-30T19:41:40.089Z,41.88
2022-11-30T19:44:08.152Z,41.30
2022-11-30T19:46:36.286Z,41.22
2022-11-30T19:49:04.982Z,46.05
2022-11-30T19:51:33.011Z,47.05
2022-11-30T19:54:01.310Z,45.10
2022-11-30T19:56:34.206Z,47.47
2022-11-30T19:59:05.550Z,47.83
2022-11-30T20:01:34.931Z,48.00
2022-11-30T20:04:03.450Z,51.40
2022-11-30T20:06:33.593Z,55.63
2022-11-30T20:09:01.935Z,50.25
2022-11-30T20:11:31.317Z,49.75
2022-11-30T20:14:00.375Z,51.85
2022-11-30T20:16:30.836Z,48.55
2022-11-30T20:19:01.185Z,51.25
2022-11-30T20:21:31.411Z,52.05
2022-11-30T20:24:01.269Z,54.20
2022-11-30T20:26:32.785Z,54.97
2022-11-30T20:29:02.269Z,55.50
2022-11-30T20:31:34.457Z,59.85
2022-11-30T20:34:02.735Z,59.35
2022-11-30T20:36:30.652Z,63.05
2022-11-30T20:38:59.918Z,79.32
2022-11-30T20:41:28.719Z,71.20
2022-11-30T20:43:58.462Z,68.15
2022-11-30T20:46:28.244Z,64.50
2022-11-30T20:48:57.068Z,59.78
2022-11-30T20:51:31.854Z,61.78
2022-11-30T20:54:01.164Z,60.15
2022-11-30T20:56:29.352Z,57.05
2022-11-30T20:59:05.047Z,57.30
2022-11-30T21:01:35.749Z,55.15
2022-11-30T21:04:03.912Z,55.53
2022-11-30T21:06:32.030Z,56.42
2022-11-30T21:09:03.302Z,57.00
2022-11-30T21:11:31.945Z,55.42
2022-11-30T21:14:01.289Z,56.28
2022-11-30T21:16:30.104Z,56.53
2022-11-30T21:19:02.719Z,55.72
2022-11-30T21:21:32.718Z,53.38
2022-11-30T21:24:01.905Z,53.55
2022-11-30T21:26:32.427Z,51.00
2022-11-30T21:29:04.491Z,55.70
2022-11-30T21:31:33.106Z,55.55
2022-11-30T21:34:01.413Z,56.22
2022-11-30T21:36:30.199Z,55.47
2022-11-30T21:39:05.156Z,53.88
2022-11-30T21:41:38.411Z,54.88
2022-11-30T21:44:08.829Z,61.17
2022-11-30T21:46:36.762Z,61.10
2022-11-30T21:49:05.154Z,65.15
2022-11-30T21:51:33.306Z,68.20
2022-11-30T21:54:02.413Z,74.28
2022-11-30T21:56:32.412Z,79.00
2022-11-30T21:59:01.125Z,80.30
2022-11-30T22:01:32.368Z,108.95
2022-11-30T22:04:02.104Z,92.97
2022-11-30T22:06:31.723Z,99.63
2022-11-30T22:09:03.335Z,101.38
2022-11-30T22:11:32.070Z,99.88
2022-11-30T22:14:00.175Z,94.63
2022-11-30T22:16:35.572Z,95.78
2022-11-30T22:19:05.369Z,98.03
2022-11-30T22:21:33.926Z,101.60
2022-11-30T22:24:03.188Z,99.30
2022-11-30T22:26:32.472Z,96.47
2022-11-30T22:29:02.293Z,99.85
2022-11-30T22:31:33.268Z,94.40
2022-11-30T22:34:01.723Z,91.45
2022-11-30T22:36:31.522Z,86.35
2022-11-30T22:39:01.297Z,83.78
2022-11-30T22:41:29.813Z,79.57
2022-11-30T22:43:58.929Z,76.95
2022-11-30T22:46:28.538Z,71.93
2022-11-30T22:49:00.312Z,68.43
2022-11-30T22:51:30.219Z,70.35
2022-11-30T22:53:59.545Z,69.68
2022-11-30T22:56:29.110Z,67.03
2022-11-30T22:59:00.026Z,64.18
2022-11-30T23:01:30.365Z,65.55
2022-11-30T23:04:04.928Z,62.45
2022-11-30T23:06:33.865Z,60.22
2022-11-30T23:09:02.050Z,62.22
2022-11-30T23:11:30.686Z,62.47
2022-11-30T23:13:58.966Z,62.42
2022-11-30T23:16:27.222Z,63.90
2022-11-30T23:18:57.220Z,64.35
2022-11-30T23:21:29.960Z,64.47
2022-11-30T23:23:59.536Z,62.55
2022-11-30T23:26:29.310Z,64.47
2022-11-30T23:29:00.728Z,63.70
2022-11-30T23:31:34.027Z,63.65
2022-11-30T23:34:05.377Z,65.93
2022-11-30T23:36:35.360Z,62.28
2022-11-30T23:39:06.184Z,61.67
2022-11-30T23:41:34.549Z,63.88
2022-11-30T23:44:03.003Z,65.30
2022-11-30T23:46:31.309Z,62.22
2022-11-30T23:48:59.307Z,65.03
2022-11-30T23:51:27.807Z,64.47
2022-11-30T23:53:57.375Z,67.30
2022-11-30T23:56:25.884Z,70.65
2022-11-30T23:58:53.915Z,67.97
